Jogging Pour Tous
Remonter

29ème Edition des Boucles Du Djale

Samedi 15 mars 2014

Course A - 1,8 km

Course B - 3,2 km

Course C - 10 km

Course A - 1,8 km
 
Position Dossard Nom Prénom Temps Filles Garçons Points Club Temps au km Km/h
1 534 DECHAMPS ALICIA 00:06:47 1 1000 CABW 00:03:46 15,92
2 504 DECHAMPS MARIE 00:06:51 2 963 CABW 00:03:48 15,77
3 501 BRUN FRITZ LORIS 00:06:58 1 926 OUPEYE 00:03:52 15,50
4 380 VAN DER HEYDEN AUBRY 00:07:01 2 889 00:03:54 15,39
5 506 PESSER LUCAS 00:07:07 3 852 RFCL OUPEYE 00:03:57 15,18
6 337 KALIN LIONEL 00:07:17 4 815 HF 00:04:03 14,83
7 63 VISCONTI ALICIA 00:07:33 3 778 00:04:12 14,30
8 546 HERMESSE JEAN 00:07:48 5 741 00:04:20 13,85
9 348 COUQUELET GAUTHIER 00:07:55 6 704 00:04:24 13,64
10 547 SERET SYLVAIN 00:08:11 7 667 ST GEORGES ATHL 00:04:33 13,20
11 565 BALBOURG AUDRIC 00:08:11 8 630 00:04:33 13,20
12 541 MAURISSEN ANNA 00:08:25 4 593 ST GEORGES ATHL 00:04:41 12,83
13 564 BALBOURG AYMERIC 00:08:27 9 556 00:04:42 12,78
14 285 CAPPA ELIA 00:08:33 5 519 00:04:45 12,63
15 511 HERMESSE GILLES 00:08:36 10 481 00:04:47 12,56
16 335 CRESSON THOMAS 00:09:07 11 444 HERVE 00:05:04 11,85
17 532 HENDRICKS PIERRE 00:09:11 12 407 RFCL 00:05:06 11,76
18 509 MERCHIOTY ALEXIS 00:09:16 13 370 TCBM 00:05:09 11,65
19 287 THEODORIDIS GEORGES 00:09:39 14 333 00:05:22 11,19
20 507 FONTAINE EMMA 00:09:41 6 296 00:05:23 11,15
21 539 HERMESSE SACHA 00:09:49 15 259 00:05:27 11,00
22 338 GARBACZ EVA 00:09:53 7 222 00:05:29 10,93
23 570 EMONTS CYNTHIA 00:10:19 8 185 00:05:44 10,47
24 554 DONY SIMON 00:11:29 16 148 00:06:23 9,40
25 286 THEODORIDIS OLIVIA 00:12:07 9 111 00:06:44 8,91
26 510 GILON NOELIA 00:12:34 10 74 00:06:59 8,59
27 555 DONY THOMAS 00:12:40 17 37 00:07:02 8,53
 
Course B - 3,2 km
 
Position Dossard Nom Prénom Temps Garçons Filles Déb H. Déb F. Points Club Temps au km Km/h
1 5116 DEFRAIGNE VINCENT 00:11:17 ....... 1 ....... ....... 1000 ATHL OUPEYE 00:03:32 17,02
2 5006 MAKA TANGUY 00:11:25 ....... 2 ....... ....... 962 FAC 00:03:34 16,82
3 5126 JOCKIN FRANCOIS 00:11:35 ....... ....... 1 ....... ....... 00:03:37 16,58
4 5001 DEMONTY NICOLAS 00:11:44 ....... 3 ....... ....... 923 AC SOUMAGNE GYM 00:03:40 16,36
5 5050 VANDERHEYDEN ELOI 00:12:09 ....... 4 ....... ....... 885 HF 00:03:48 15,80
6 5125 GRIFFE LUCAS 00:12:24 ....... ....... 2 ....... ....... RFCL 00:03:53 15,48
7 5030 DE HEY BENJAMIN 00:12:28 ....... 5 ....... ....... 846 HF 00:03:54 15,40
8 5109 HERMESSE JEROME 00:12:42 ....... 6 ....... ....... 808 00:03:58 15,12
9 637 NIZET KARIM 00:13:12 ....... ....... 3 ....... ....... ATH CLUB VISE 00:04:08 14,55
10 5130 PINOY NICOLAS 00:13:14 ....... 7 ....... ....... 769 00:04:08 14,51
11 5120 BODSON FLORENCE 00:13:14 1 ....... ....... ....... 731 TCBM 00:04:08 14,51
12 5007 CLAES MATHILDE 00:13:24 2 ....... ....... ....... 692 AC VISE 00:04:11 14,33
13 5065 HAMIOT FLORIAN 00:13:48 ....... 8 ....... ....... 654 HF 00:04:19 13,91
14 5114 LAMARCHAND MARVIN 00:14:14 ....... ....... 4 ....... ....... RFCL 00:04:27 13,49
15 5121 JANS REMY 00:14:32 ....... 9 ....... ....... 615 OUPEYE ATHLETISME 00:04:32 13,21
16 5061 BODSON SHANNON 00:14:39 3 ....... ....... ....... 577 00:04:35 13,11
17 5111 HERMESSE GUILLAUME 00:14:40 ....... 10 ....... ....... 538 00:04:35 13,09
18 5113 GICON HUGO 00:14:47 ....... ....... ....... ....... ....... 00:04:37 12,99
19 5122 DEWALLEF NOA 00:14:51 ....... 11 ....... ....... 500 TCBM 00:04:38 12,93
20 5123 PENELLE SIMON 00:14:53 ....... 12 ....... ....... 462 TCBM 00:04:39 12,90
21 5129 DIRICKS AURELIEN 00:15:00 ....... 13 ....... ....... 423 OUPEYE ATHELTISME 00:04:41 12,80
22 5104 ORY CEDRIC 00:15:02 ....... 14 ....... ....... 385 00:04:42 12,77
23 5106 FLAS A-GATHE 00:15:03 4 ....... ....... ....... 346 OUPEYE ATHLETISME 00:04:42 12,76
24 5134 TAYMANS SEBASTIEN 00:15:38 ....... ....... 5 ....... ....... 00:04:53 12,28
25 519 GUCKEL THIBAUT 00:16:12 ....... 15 ....... ....... 308 OUPEYE 00:05:04 11,85
26 5108 FIC JULIEN 00:16:23 ....... ....... ....... ....... ....... 00:05:07 11,72
27 5102 DEBARTOLOMEO NICOLAS 00:17:10 ....... 16 ....... ....... 269 00:05:22 11,18
28 5103 HERMESSE NOAH 00:17:11 ....... ....... ....... ....... ....... 00:05:22 11,17
29 5112 DOSSANTOS CHAIMA 00:17:11 ....... ....... ....... ....... ....... TCBM 00:05:22 11,17
30 5105 MOUSSAID KAYLA 00:17:31 ....... ....... ....... ....... ....... 00:05:28 10,96
31 5131 PROVE SAM 00:17:32 ....... ....... ....... ....... ....... 00:05:29 10,95
32 5137 EMONTS HENRI 00:17:43 ....... ....... 6 ....... ....... 00:05:32 10,84
33 5136 STICCA MARIA 00:17:48 ....... ....... ....... 1 ....... 00:05:34 10,79
34 5115 REYNERS CARLOS 00:18:01 ....... ....... ....... ....... ....... RUNNI VISE 00:05:38 10,66
35 5107 MERLHIOT LILIAN 00:18:43 ....... 17 ....... ....... 231 THN 00:05:51 10,26
36 5132 PROVE CAMILLE 00:19:01 ....... ....... ....... ....... ....... 00:05:57 10,10
37 5117 SOOLS EMILIE 00:19:09 ....... 18 ....... ....... 192 00:05:59 10,03
38 5118 SKIVEE MANON 00:19:09 5 ....... ....... ....... 154 TCBM 00:05:59 10,03
39 5139 DE PAUN SEVERINE 00:20:56 ....... ....... ....... 2 ....... JCPMF VISE 00:06:32 9,17
40 5135 PROVE MICHAEL 00:20:56 ....... ....... 7 ....... ....... 00:06:32 9,17
41 5133 TAYMANS MANON 00:20:57 6 ....... ....... ....... 115 00:06:33 9,16
42 5003 DETRY MARIE-FRANCE 00:21:07 ....... ....... ....... 3 ....... 00:06:36 9,09
43 5138 WI;LKIN CHRISTEL 00:21:19 7 ....... ....... ....... 77 00:06:40 9,01
44 5063 IANDOLINO SANTINA 00:22:28 ....... ....... ....... 4 ....... DECATHLON 00:07:01 8,55
45 5127 MARINO FIONA 00:23:01 ....... ....... ....... 5 ....... 00:07:12 8,34
46 5124 VARCIT STEPHANE 00:24:02 ....... ....... 8 ....... ....... 00:07:31 7,99
47 5128 MARINO LAURA 00:24:31 ....... ....... ....... 6 ....... 00:07:40 7,83
48 5031 BELLEAU ANNE 00:24:57 ....... ....... ....... 7 ....... 00:07:48 7,70
49 5101 DEBARTOLOMEO MAELLE 00:25:07 ....... ....... ....... ....... ....... 00:07:51 7,64
50 5016 HILDERSON LIZA 00:26:01 8 ....... ....... ....... 38 00:08:08 7,38
51 5119 SCHIEPERS AUGUSTINE 00:26:02 ....... ....... ....... 8 ....... 00:08:08 7,38
52 5100 RACOUX DANIELE 00:26:28 ....... ....... ....... ....... ....... 00:08:16 7,25
 
Course C - 10 km
 
Position Dossard Nom Prénom Temps Esp.H Séniors Vétér.I Vétér.II Vétér.III Esp.D Dames Ainées I Ainées II Ainées III Points Club Temps au km Km/h
1 129 WALLISCH THOMAS 00:34:56 1 ....... ....... ....... ....... ....... ....... ....... ....... ....... 1000 FAC 00:03:30 17,18
2 320 VRANCKEN JO 00:35:02 ....... 1 ....... ....... ....... ....... ....... ....... ....... ....... 997 PXL RUNNING TEAM 00:03:30 17,13
3 2 VENTURELLI MAXIME 00:36:36 ....... 2 ....... ....... ....... ....... ....... ....... ....... ....... 993 RFCL 00:03:40 16,39
4 1 VENTURELLI DOMINIQUE 00:36:39 ....... ....... 1 ....... ....... ....... ....... ....... ....... ....... 990 RFCL 00:03:40 16,37
5 529 BELMILOUD KARIM 00:36:50 ....... ....... 2 ....... ....... ....... ....... ....... ....... ....... 987 CABW 00:03:41 16,29
6 613 PAWELKOWSKI DAVID 00:36:55 ....... 3 ....... ....... ....... ....... ....... ....... ....... ....... 984 FAGNARD TEAM 00:03:41 16,25
7 592 FREMALLE BENOIT 00:37:01 ....... 4 ....... ....... ....... ....... ....... ....... ....... ....... 980 RFCL 00:03:42 16,21
8 192 LAMBOTTE STEPHAN 00:37:15 ....... ....... 3 ....... ....... ....... ....... ....... ....... ....... 977 ENERGYTRI 00:03:44 16,11
9 216 CANNARSA MICHEL 00:37:39 ....... ....... 4 ....... ....... ....... ....... ....... ....... ....... 974 00:03:46 15,94
10 571 COMPERE BRICE 00:37:43 ....... 5 ....... ....... ....... ....... ....... ....... ....... ....... 970 TCBM 00:03:46 15,91
11 369 EVRARD J PIERRE 00:37:46 ....... ....... 5 ....... ....... ....... ....... ....... ....... ....... 967 JOGIN ATTITUDE 00:03:47 15,89
12 611 CANISIUS PIERRE OLIVIER 00:37:53 ....... ....... 6 ....... ....... ....... ....... ....... ....... ....... 964 RUNNING TEAM VISE 00:03:47 15,84
13 522 MICHEL REGIS 00:38:14 ....... 6 ....... ....... ....... ....... ....... ....... ....... ....... 961 00:03:49 15,69
14 233 VEGA LORENZO SEVERINO 00:38:17 ....... ....... 7 ....... ....... ....... ....... ....... ....... ....... 957 SER ATHL 00:03:50 15,67
15 572 VAN UUM RENE 00:38:24 ....... ....... ....... 1 ....... ....... ....... ....... ....... ....... 954 ATL MAASTRICHT 00:03:50 15,63
16 667 FRANSSEN DAVID 00:38:26 ....... 7 ....... ....... ....... ....... ....... ....... ....... ....... 951 00:03:51 15,61
17 10 DEBRA DANIEL 00:38:27 ....... ....... 8 ....... ....... ....... ....... ....... ....... ....... 947 00:03:51 15,60
18 99 MELARD J EMILE 00:38:46 ....... 8 ....... ....... ....... ....... ....... ....... ....... ....... 944 00:03:53 15,48
19 548 DEWALLEF PASCAL 00:38:51 ....... ....... 9 ....... ....... ....... ....... ....... ....... ....... 941 TCBM 00:03:53 15,44
20 370 DERKENNE OLIVIER 00:38:52 ....... ....... 10 ....... ....... ....... ....... ....... ....... ....... 938 00:03:53 15,44
21 234 DI VINCENZO GUISEPPE 00:38:53 ....... ....... ....... 2 ....... ....... ....... ....... ....... ....... 934 SER ATHL 00:03:53 15,43
22 6 BAILLY LUC 00:38:55 ....... ....... 11 ....... ....... ....... ....... ....... ....... ....... 931 RFCL 00:03:54 15,42
23 173 DANIELS JEAN MARIE 00:39:05 ....... ....... 12 ....... ....... ....... ....... ....... ....... ....... 928 AMICALE VC 00:03:55 15,35
24 3 WOOLF ALAIN 00:39:11 ....... ....... ....... 3 ....... ....... ....... ....... ....... ....... 924 ACDC 00:03:55 15,31
25 569 OTTEN DENIS 00:39:13 2 ....... ....... ....... ....... ....... ....... ....... ....... ....... 921 AC VISE 00:03:55 15,30
26 551 NISSEN JEAN 00:39:20 ....... ....... ....... 4 ....... ....... ....... ....... ....... ....... 918 HERVE AC 00:03:56 15,25
27 32 BAYONNET JULIEN 00:39:23 ....... 9 ....... ....... ....... ....... ....... ....... ....... ....... 914 SER ATHL 00:03:56 15,23
28 670 RABENDZKI ROMAN 00:39:32 ....... 10 ....... ....... ....... ....... ....... ....... ....... ....... 911 00:03:57 15,18
29 318 DEGHAYE BERNARD 00:39:40 ....... ....... 13 ....... ....... ....... ....... ....... ....... ....... 908 00:03:58 15,13
30 345 LEONARD MARC 00:39:42 ....... ....... 14 ....... ....... ....... ....... ....... ....... ....... 905 FCHA 00:03:58 15,11
31 612 ESSABI ALI 00:39:45 ....... ....... ....... 5 ....... ....... ....... ....... ....... ....... 901 SERUNNERS 00:03:59 15,09
32 83 HALDERS SERVAIS 00:39:47 ....... ....... ....... ....... 1 ....... ....... ....... ....... ....... 898 00:03:59 15,08
33 51 NIHANT FLORENT 00:39:53 3 ....... ....... ....... ....... ....... ....... ....... ....... ....... 895 FNJC 00:03:59 15,04
34 178 GRAINDORGE ERIC 00:39:56 ....... ....... ....... 6 ....... ....... ....... ....... ....... ....... 891 TDCH 00:04:00 15,03
35 651 TROIANO MICHAEL 00:39:57 ....... 11 ....... ....... ....... ....... ....... ....... ....... ....... 888 00:04:00 15,02
36 544 AERTS CORENTIN 00:39:58 ....... 12 ....... ....... ....... ....... ....... ....... ....... ....... 885 TCBM 00:04:00 15,01
37 272 GARIN YVES 00:40:00 ....... ....... 15 ....... ....... ....... ....... ....... ....... ....... 882 00:04:00 15,00
38 614 PANARIELLO MAURICE 00:40:02 ....... 13 ....... ....... ....... ....... ....... ....... ....... ....... 878 00:04:00 14,99
39 4 WAERTS ALAIN 00:40:08 ....... ....... ....... ....... 2 ....... ....... ....... ....... ....... 875 SER ATHL 00:04:01 14,95
40 206 VANDERMEULEN BENOIT 00:40:09 ....... ....... 16 ....... ....... ....... ....... ....... ....... ....... 872 00:04:01 14,94
41 135 LELOUP PASCAL 00:40:19 ....... 14 ....... ....... ....... ....... ....... ....... ....... ....... 868 SER ATHL 00:04:02 14,88
42 116 LAMBERTY HELORI 00:40:22 ....... 15 ....... ....... ....... ....... ....... ....... ....... ....... 865 00:04:02 14,86
43 55 MATTERN BERTI 00:40:26 ....... 16 ....... ....... ....... ....... ....... ....... ....... ....... 862 00:04:03 14,84
44 682 LAMOLINE GUILLAUME 00:40:39 ....... 17 ....... ....... ....... ....... ....... ....... ....... ....... 859 00:04:04 14,76
45 595 ROELANDT PHILIPPE 00:40:48 ....... 18 ....... ....... ....... ....... ....... ....... ....... ....... 855 00:04:05 14,71
46 561 LOGNOUL FABIEN 00:40:54 ....... ....... 17 ....... ....... ....... ....... ....... ....... ....... 852 RFCL 00:04:05 14,67
47 560 SPRONKEN RAOUL 00:41:03 ....... ....... 18 ....... ....... ....... ....... ....... ....... ....... 849 00:04:06 14,62
48 316 CLAES BENNY 00:41:05 ....... ....... ....... 7 ....... ....... ....... ....... ....... ....... 845 PXL RUNNING TEAM 00:04:06 14,60
49 591 DECKERS MICHEL 00:41:09 ....... ....... 19 ....... ....... ....... ....... ....... ....... ....... 842 MAASERICHE ATLETICX 00:04:07 14,58
50 134 GHEURY PHILIPPE 00:41:13 ....... ....... 20 ....... ....... ....... ....... ....... ....... ....... 839 SER ATHL 00:04:07 14,56
51 118 RIHON PAUL 00:41:18 ....... ....... ....... 8 ....... ....... ....... ....... ....... ....... 836 FLEMALLE 00:04:08 14,53
52 596 MARCHIONE ROSARIO 00:41:48 ....... ....... ....... 9 ....... ....... ....... ....... ....... ....... 832 00:04:11 14,35
53 558 RASIER PATRICK 00:41:59 ....... ....... ....... 10 ....... ....... ....... ....... ....... ....... 829 00:04:12 14,29
54 255 ROUFOSSE JOEFREY 00:42:01 ....... ....... 21 ....... ....... ....... ....... ....... ....... ....... 826 PARAMYTHIA T BELGIUM 00:04:12 14,28
55 256 MARTIN ERIC 00:42:17 ....... ....... ....... 11 ....... ....... ....... ....... ....... ....... 822 00:04:14 14,19
56 260 GARBACZ LUCAS 00:42:21 ....... ....... ....... ....... ....... ....... ....... ....... ....... ....... 0 DECATHLON 00:04:14 14,17
57 622 MONJOIE ERIC 00:42:24 ....... ....... 22 ....... ....... ....... ....... ....... ....... ....... 819 CAPNRB 00:04:14 14,15
58 115 RIGO MICHEL 00:42:25 ....... 19 ....... ....... ....... ....... ....... ....... ....... ....... 816 00:04:15 14,15
59 62 COUNE BENOIT 00:42:28 ....... ....... 23 ....... ....... ....... ....... ....... ....... ....... 813 00:04:15 14,13
60 589 VANBRUMMELEN CLEMENT 00:42:36 4 ....... ....... ....... ....... ....... ....... ....... ....... ....... 809 00:04:16 14,08
61 627 MEURICE JESON 00:42:48 ....... 20 ....... ....... ....... ....... ....... ....... ....... ....... 806 ECOBATI 00:04:17 14,02
62 620 PAILIPPENS CHRISTOPHE 00:42:54 ....... 21 ....... ....... ....... ....... ....... ....... ....... ....... 803 00:04:17 13,99
63 5 MATHOT RICHARD 00:42:54 ....... ....... ....... ....... 3 ....... ....... ....... ....... ....... 799 00:04:17 13,99
64 148 DOSSERAY ROGER 00:42:56 ....... ....... ....... ....... 4 ....... ....... ....... ....... ....... 796 HF 00:04:18 13,98
65 82 JEUKENS MICHEL 00:42:59 ....... ....... 24 ....... ....... ....... ....... ....... ....... ....... 793 00:04:18 13,96
66 38 THIRIFAYS DELPHINE 00:43:02 ....... ....... ....... ....... ....... 1 ....... ....... ....... ....... 789 RFCL 00:04:18 13,94
67 681 LEHANCE PASCAL 00:43:03 ....... ....... 25 ....... ....... ....... ....... ....... ....... ....... 786 RFCL 00:04:18 13,94
68 608 LEROY FABIENNE 00:43:11 ....... ....... ....... ....... ....... ....... ....... 1 ....... ....... 783 FCHA 00:04:19 13,89
69 545 MILAN DANIELE 00:43:17 ....... ....... 26 ....... ....... ....... ....... ....... ....... ....... 780 CAP NRB 00:04:20 13,86
70 137 BETHUME BERNARD 00:43:29 ....... ....... 27 ....... ....... ....... ....... ....... ....... ....... 776 00:04:21 13,80
71 132 VANDEVENNE CHRISTIAN 00:43:46 ....... ....... ....... ....... 5 ....... ....... ....... ....... ....... 773 JCH 00:04:23 13,71
72 44 FREDERICH DOMINIQUE 00:43:50 ....... ....... ....... ....... ....... ....... ....... 2 ....... ....... 770 HERV 00:04:23 13,69
73 126 HERZET CLAUDE 00:43:56 ....... ....... ....... ....... 6 ....... ....... ....... ....... ....... 766 00:04:24 13,66
74 49 NIHANT FABIAN 00:44:04 ....... ....... 28 ....... ....... ....... ....... ....... ....... ....... 763 FNJC 00:04:24 13,62
75 34 COOSEMANS ROMUALD 00:44:07 ....... 22 ....... ....... ....... ....... ....... ....... ....... ....... 760 ROMU TEAM 00:04:25 13,60
76 313 FONTAINE EMMANUEL 00:44:10 ....... 23 ....... ....... ....... ....... ....... ....... ....... ....... 757 00:04:25 13,58
77 590 DION ROGER 00:44:16 ....... ....... ....... 12 ....... ....... ....... ....... ....... ....... 753 00:04:26 13,55
78 300 PISCART FRANCOISE 00:44:27 ....... ....... ....... ....... ....... ....... ....... 3 ....... ....... 750 SER ATHL 00:04:27 13,50
79 71 VISCONTI SALVATORE 00:44:28 ....... 24 ....... ....... ....... ....... ....... ....... ....... ....... 747 00:04:27 13,49
80 587 DE WIT JEAN YVES JEAN YVES 00:44:33 ....... 25 ....... ....... ....... ....... ....... ....... ....... ....... 743 00:04:27 13,47
81 207 WESPHAEL EVELYNE 00:44:37 ....... ....... ....... ....... ....... ....... 1 ....... ....... ....... 740 00:04:28 13,45
82 39 BERTONI JOEL 00:44:41 ....... ....... ....... 13 ....... ....... ....... ....... ....... ....... 737 00:04:28 13,43
83 23 DELHAYE PHILIPPE 00:44:49 ....... ....... 29 ....... ....... ....... ....... ....... ....... ....... 734 00:04:29 13,39
84 574 BODSON LAURA 00:44:50 ....... ....... ....... ....... ....... 2 ....... ....... ....... ....... 730 TCBM 00:04:29 13,38
85 328 SACCO DORIAN 00:44:58 ....... 26 ....... ....... ....... ....... ....... ....... ....... ....... 727 00:04:30 13,34
86 268 SAVELBERG PASCAL 00:45:02 ....... 27 ....... ....... ....... ....... ....... ....... ....... ....... 724 RFCL 00:04:30 13,32
87 236 SPELGATTI ANDREA 00:45:04 5 ....... ....... ....... ....... ....... ....... ....... ....... ....... 720 00:04:30 13,31
88 110 CHRISTODOUL?AS PATRICK 00:45:05 ....... ....... ....... 14 ....... ....... ....... ....... ....... ....... 717 JOG IN ATTITUDE 00:04:30 13,31
89 288 MONBALLIN LOIC 00:45:08 ....... 28 ....... ....... ....... ....... ....... ....... ....... ....... 714 00:04:31 13,29
90 16 TROMME DORIAN 00:45:16 ....... 29 ....... ....... ....... ....... ....... ....... ....... ....... 711 STUDIO FORME VOTTEM 00:04:32 13,25
91 79 PHILIS LAMBRINY 00:45:17 ....... ....... ....... ....... ....... ....... ....... 4 ....... ....... 707 RFCL 00:04:32 13,25
92 696 VALOIR FRANCOIS 00:45:19 ....... 30 ....... ....... ....... ....... ....... ....... ....... ....... 704 00:04:32 13,24
93 8 BUCKINX ETIENNE 00:45:22 ....... ....... ....... 15 ....... ....... ....... ....... ....... ....... 701 RFCL 00:04:32 13,23
94 677 STOCLET VINCENT 00:45:30 ....... ....... 30 ....... ....... ....... ....... ....... ....... ....... 697 00:04:33 13,19
95 93 BLAISE PIERRE 00:45:34 ....... 31 ....... ....... ....... ....... ....... ....... ....... ....... 694 JOG IN ATTITUDE 00:04:33 13,17
96 200 VAN DER HEYDEN ERIC 00:45:36 ....... 32 ....... ....... ....... ....... ....... ....... ....... ....... 691 00:04:34 13,16
97 638 WOLFF BERTHOLD 00:45:41 ....... ....... ....... ....... 7 ....... ....... ....... ....... ....... 688 LAL EUPEN 00:04:34 13,13
98 536 PIRSON STEPHANE 00:45:56 ....... ....... 31 ....... ....... ....... ....... ....... ....... ....... 684 00:04:36 13,06
99 553 SCHUERMANS VINCENT 00:45:56 ....... 33 ....... ....... ....... ....... ....... ....... ....... ....... 681 00:04:36 13,06
100 65 TROMME EMMANUEL 00:45:58 ....... 34 ....... ....... ....... ....... ....... ....... ....... ....... 678 00:04:36 13,05
101 562 LAPAILLE DANIEL 00:46:05 ....... ....... 32 ....... ....... ....... ....... ....... ....... ....... 674 HERSTAL 00:04:37 13,02
102 691 COLLEYE MICHAEL 00:46:06 ....... 35 ....... ....... ....... ....... ....... ....... ....... ....... 671 HACCOURT 00:04:37 13,02
103 641 JANDRAIN FRANCOIS 00:46:08 ....... 36 ....... ....... ....... ....... ....... ....... ....... ....... 668 HST 00:04:37 13,01
104 125 HOSMANS TONY 00:46:28 ....... ....... 33 ....... ....... ....... ....... ....... ....... ....... 664 00:04:39 12,91
105 621 LOISEAU JEAN LUC 00:46:35 ....... ....... ....... 16 ....... ....... ....... ....... ....... ....... 661 HST 00:04:40 12,88
106 542 MAURISSEN HERVE 00:46:39 ....... ....... 34 ....... ....... ....... ....... ....... ....... ....... 658 TCBM 00:04:40 12,86
107 12 DHEUR MARTIAL 00:46:42 ....... ....... ....... 17 ....... ....... ....... ....... ....... ....... 655 JOG IN ATTITUDE 00:04:40 12,85
108 694 TASSET CHRISTOPHE 00:46:47 ....... 37 ....... ....... ....... ....... ....... ....... ....... ....... 651 00:04:41 12,83
109 673 ORTMANS STEPHANIE 00:46:55 ....... ....... ....... ....... ....... ....... 2 ....... ....... ....... 648 00:04:41 12,79
110 636 GREGOIRE MARIE 00:46:55 ....... ....... ....... ....... ....... ....... 3 ....... ....... ....... 645 00:04:41 12,79
111 701 HAMDI ZYED 00:47:06 ....... 38 ....... ....... ....... ....... ....... ....... ....... ....... 641 00:04:43 12,74
112 367 MAROT BERNARD 00:47:08 ....... ....... ....... ....... 8 ....... ....... ....... ....... ....... 638 00:04:43 12,73
113 702 RASE OLIVIER 00:47:14 ....... ....... 35 ....... ....... ....... ....... ....... ....... ....... 635 HST 00:04:43 12,70
114 656 MEYER BENOIT 00:47:16 ....... ....... 36 ....... ....... ....... ....... ....... ....... ....... 632 00:04:44 12,69
115 693 GERMAIN FREDERIC 00:47:16 ....... ....... 37 ....... ....... ....... ....... ....... ....... ....... 628 HACCOURT SANTE 00:04:44 12,69
116 598 LAMBOTTE SEBASTIEN 00:47:29 ....... 39 ....... ....... ....... ....... ....... ....... ....... ....... 625 00:04:45 12,64
117 54 THONNARD MARC 00:47:29 ....... ....... ....... 18 ....... ....... ....... ....... ....... ....... 622 00:04:45 12,64
118 653 JAMIN DOMINIQUE 00:47:33 ....... 40 ....... ....... ....... ....... ....... ....... ....... ....... 618 00:04:45 12,62
119 69 JULIN PASCAL 00:47:34 ....... 41 ....... ....... ....... ....... ....... ....... ....... ....... 615 AMC 00:04:45 12,61
120 626 POTIER THOMAS 00:47:37 ....... 42 ....... ....... ....... ....... ....... ....... ....... ....... 612 00:04:46 12,60
121 22 MANCINI MICHEL 00:47:43 ....... ....... ....... ....... 9 ....... ....... ....... ....... ....... 609 SER ATHL 00:04:46 12,57
122 628 MALHERBE MAXIME 00:47:45 ....... 43 ....... ....... ....... ....... ....... ....... ....... ....... 605 00:04:46 12,57
123 660 FRAINEUX JEROME 00:47:46 ....... 44 ....... ....... ....... ....... ....... ....... ....... ....... 602 00:04:47 12,56
124 528 SIMON JEANNINE 00:47:52 ....... ....... ....... ....... ....... ....... ....... 5 ....... ....... 599 RT VISE 00:04:47 12,53
125 505 NYSSEN ALAIN 00:47:52 ....... ....... 38 ....... ....... ....... ....... ....... ....... ....... 595 BAC 00:04:47 12,53
126 46 MENNICKEN ROGER 00:47:57 ....... ....... ....... 19 ....... ....... ....... ....... ....... ....... 592 EYNATTEN 00:04:48 12,51
127 5035 STAINIER ERIC 00:48:08 ....... ....... ....... 20 ....... ....... ....... ....... ....... ....... 589 00:04:49 12,47
128 527 IDON SERGE 00:48:09 ....... ....... ....... 21 ....... ....... ....... ....... ....... ....... 586 JCH 00:04:49 12,46
129 588 LAGRENET MIKE 00:48:16 ....... 45 ....... ....... ....... ....... ....... ....... ....... ....... 582 00:04:50 12,43
130 344 JANS J PIERRE 00:48:17 ....... ....... ....... 22 ....... ....... ....... ....... ....... ....... 579 00:04:50 12,43
131 603 MARINO GIOVANNI 00:48:21 ....... ....... 39 ....... ....... ....... ....... ....... ....... ....... 576 00:04:50 12,41
132 690 BORSU JEAN FRANCOIS 00:48:22 ....... ....... 40 ....... ....... ....... ....... ....... ....... ....... 572 00:04:50 12,41
133 538 CASTELLANO JOSE 00:48:22 ....... ....... 41 ....... ....... ....... ....... ....... ....... ....... 569 00:04:50 12,41
134 602 IDON JEAN MARC 00:48:24 ....... ....... 42 ....... ....... ....... ....... ....... ....... ....... 566 HST HACCOURT 00:04:50 12,40
135 525 DEBOCK JULIE 00:48:24 ....... ....... ....... ....... ....... ....... 4 ....... ....... ....... 563 TEAM SKINFIT 00:04:50 12,40
136 552 ARCHAMBEAU ROGER 00:48:30 ....... ....... ....... ....... 10 ....... ....... ....... ....... ....... 559 00:04:51 12,37
137 516 KEVERS ERIC 00:48:41 ....... ....... 43 ....... ....... ....... ....... ....... ....... ....... 556 00:04:52 12,32
138 550 GASPER CLAUDE 00:48:48 ....... 46 ....... ....... ....... ....... ....... ....... ....... ....... 553 00:04:53 12,30
139 629 ANGE PHILIPPE 00:48:48 ....... 47 ....... ....... ....... ....... ....... ....... ....... ....... 549 00:04:53 12,30
140 305 NIKAS YANNI 00:48:59 ....... ....... 44 ....... ....... ....... ....... ....... ....... ....... 546 PARAMYTHIA TEAM BELGIUM 00:04:54 12,25
141 707 SIMS JONATHAN 00:49:01 ....... 48 ....... ....... ....... ....... ....... ....... ....... ....... 543 00:04:54 12,24
142 615 REFANO FREDERIL 00:49:02 ....... ....... 45 ....... ....... ....... ....... ....... ....... ....... 539 00:04:54 12,24
143 601 WAUTERS INGRID 00:49:02 ....... ....... ....... ....... ....... ....... ....... 6 ....... ....... 536 00:04:54 12,24
144 315 CULOT JEAN YVES 00:49:04 ....... ....... 46 ....... ....... ....... ....... ....... ....... ....... 533 00:04:54 12,23
145 157 BATTISTINI LUCIANO 00:49:08 ....... ....... ....... 23 ....... ....... ....... ....... ....... ....... 530 00:04:55 12,21
146 262 DEMOLLIN MARC 00:49:12 ....... ....... ....... 24 ....... ....... ....... ....... ....... ....... 526 RFCL 00:04:55 12,20
147 20 D HOEY CHRISTIAN 00:49:14 ....... ....... ....... 25 ....... ....... ....... ....... ....... ....... 523 00:04:55 12,19
148 535 BAIAMONTE NATHALIE 00:49:16 ....... ....... ....... ....... ....... ....... ....... 7 ....... ....... 520 00:04:56 12,18
149 579 GUCKEL BRUNO 00:49:16 ....... ....... 47 ....... ....... ....... ....... ....... ....... ....... 516 OUPEYE ATHL 00:04:56 12,18
150 175 EGGEN RONY 00:49:20 ....... ....... ....... ....... 11 ....... ....... ....... ....... ....... 513 00:04:56 12,16
151 96 MAKA ALEXANDRE 00:49:26 ....... ....... ....... 26 ....... ....... ....... ....... ....... ....... 510 LE TRAIL CA FL?MALLE 00:04:57 12,14
152 584 CULOT CHRISTIAN 00:49:29 ....... ....... 48 ....... ....... ....... ....... ....... ....... ....... 507 00:04:57 12,13
153 668 LOSLEVER CHRISTOPHE 00:49:48 ....... 49 ....... ....... ....... ....... ....... ....... ....... ....... 503 00:04:59 12,05
154 635 ROSIER SEBASTIEN 00:49:54 ....... 50 ....... ....... ....... ....... ....... ....... ....... ....... 500 00:04:59 12,02
155 663 CONRAADS MARC 00:49:57 ....... ....... 49 ....... ....... ....... ....... ....... ....... ....... 497 00:05:00 12,01
156 180 RASQUIN DIDIER 00:50:01 ....... ....... 50 ....... ....... ....... ....... ....... ....... ....... 493 HAC COURT SANTE 00:05:00 12,00
157 530 JAMOTTE MARC 00:50:08 ....... ....... 51 ....... ....... ....... ....... ....... ....... ....... 490 HACCOURT SANTE 00:05:01 11,97
158 662 BUSCHGENS NATHALIE 00:50:09 ....... ....... ....... ....... ....... ....... ....... 8 ....... ....... 487 00:05:01 11,96
159 86 JAMIN PHILIPPE 00:50:11 ....... 51 ....... ....... ....... ....... ....... ....... ....... ....... 484 JOG IN ATTITUDE 00:05:01 11,96
160 709 CASTIGLIONE JOW 00:50:12 ....... 52 ....... ....... ....... ....... ....... ....... ....... ....... 480 00:05:01 11,95
161 686 BELLEFLAMME SERGE 00:50:13 ....... ....... ....... ....... 12 ....... ....... ....... ....... ....... 477 00:05:01 11,95
162 314 MORANA EDUARDO 00:50:14 ....... ....... 52 ....... ....... ....... ....... ....... ....... ....... 474 SER ATHL 00:05:01 11,94
163 259 PRIJOT PATRICK 00:50:15 ....... ....... 53 ....... ....... ....... ....... ....... ....... ....... 470 SCOUBY TEAM 00:05:01 11,94
164 630 LAMING MARY 00:50:15 ....... ....... ....... ....... ....... ....... 5 ....... ....... ....... 467 JOG ATTITUDE 00:05:01 11,94
165 267 DOYEN HUBERT 00:50:22 ....... ....... ....... ....... 13 ....... ....... ....... ....... ....... 464 00:05:02 11,91
166 258 PIACENZA MARTHA 00:50:25 ....... ....... ....... ....... ....... ....... ....... ....... 1 ....... 461 RFCL 00:05:03 11,90
167 107 DATTOLI CARLO 00:50:27 ....... ....... ....... 27 ....... ....... ....... ....... ....... ....... 457 00:05:03 11,89
168 334 DE SIMONE SALVATORE 00:50:29 ....... ....... ....... ....... 14 ....... ....... ....... ....... ....... 454 RC NEUPRE 00:05:03 11,89
169 568 PAPICCIO ERIC 00:50:29 ....... ....... 54 ....... ....... ....... ....... ....... ....... ....... 451 00:05:03 11,89
170 610 RENARD LAURENCE 00:50:35 ....... ....... ....... ....... ....... ....... ....... 9 ....... ....... 447 RUNNING TEAM VISE 00:05:03 11,86
171 606 SANFILIPPO JOSEPHINE 00:50:41 ....... ....... ....... ....... ....... ....... ....... 10 ....... ....... 444 00:05:04 11,84
172 593 DECHAMPS BRIAN 00:50:43 ....... 53 ....... ....... ....... ....... ....... ....... ....... ....... 441 00:05:04 11,83
173 556 DONY OLIVIER 00:50:45 ....... 54 ....... ....... ....... ....... ....... ....... ....... ....... 438 00:05:05 11,82
174 576 VERVECKEN MICHAEL 00:51:04 ....... 55 ....... ....... ....... ....... ....... ....... ....... ....... 434 00:05:06 11,75
175 582 DARCIS JOEL 00:51:05 ....... 56 ....... ....... ....... ....... ....... ....... ....... ....... 431 00:05:07 11,75
176 503 MOUSSAID ZAHIRA 00:51:14 ....... ....... ....... ....... ....... ....... ....... 11 ....... ....... 428 00:05:07 11,71
177 537 HONORE ALAIN 00:51:15 ....... ....... 55 ....... ....... ....... ....... ....... ....... ....... 424 00:05:07 11,71
178 61 THIELENS ERIC 00:51:38 ....... ....... 56 ....... ....... ....... ....... ....... ....... ....... 421 00:05:10 11,62
179 585 RENWART JOSEPH 00:51:46 ....... ....... ....... ....... 15 ....... ....... ....... ....... ....... 418 00:05:11 11,59
180 683 KREUTZ JOSE 00:51:50 ....... ....... 57 ....... ....... ....... ....... ....... ....... ....... 414 00:05:11 11,58
181 567 TOUSSAINT SEBASTIEN 00:51:51 ....... 57 ....... ....... ....... ....... ....... ....... ....... ....... 411 00:05:11 11,57
182 40 HAYEN THOMAS 00:51:53 ....... 58 ....... ....... ....... ....... ....... ....... ....... ....... 408 00:05:11 11,56
183 277 BAWIN PHILIPPE 00:51:53 ....... ....... ....... 28 ....... ....... ....... ....... ....... ....... 405 00:05:11 11,56
184 274 TIMMERMANS DAMIEN 00:51:55 ....... 59 ....... ....... ....... ....... ....... ....... ....... ....... 401 00:05:12 11,56
185 583 BIELEN MICHEL 00:52:05 ....... ....... ....... 29 ....... ....... ....... ....... ....... ....... 398 00:05:13 11,52
186 513 FAFCHAMPS EUDORE 00:52:05 ....... ....... ....... 30 ....... ....... ....... ....... ....... ....... 395 00:05:13 11,52
187 618 DUPUIS LEON MARIE 00:52:15 ....... ....... ....... 31 ....... ....... ....... ....... ....... ....... 391 HACCOURT 00:05:14 11,48
188 294 LAHAYE LIONEL 00:52:16 ....... 60 ....... ....... ....... ....... ....... ....... ....... ....... 388 00:05:14 11,48
189 240 WARLAND ANDR 00:52:21 ....... ....... 58 ....... ....... ....... ....... ....... ....... ....... 385 JOG IN ATTITUDE 00:05:14 11,46
190 607 FERNANDEZ BERNARD 00:52:23 ....... ....... 59 ....... ....... ....... ....... ....... ....... ....... 382 JODEXO 00:05:14 11,45
191 508 MERCHIOT DIDIER 00:52:26 ....... ....... 60 ....... ....... ....... ....... ....... ....... ....... 378 TCBM 00:05:15 11,44
192 557 MEURIS BERNARD 00:52:26 ....... ....... 61 ....... ....... ....... ....... ....... ....... ....... 375 00:05:15 11,44
193 705 SPEECART ANTHONY 00:52:41 ....... 61 ....... ....... ....... ....... ....... ....... ....... ....... 372 00:05:16 11,39
194 261 LELOUP DOMINIQUE MARIE 00:52:47 ....... ....... ....... ....... ....... ....... ....... 12 ....... ....... 368 00:05:17 11,37
195 146 CIOPPA FRANCO 00:52:55 ....... ....... 62 ....... ....... ....... ....... ....... ....... ....... 365 00:05:17 11,34
196 340 PLOEMMEN PATRICK 00:52:58 ....... ....... 63 ....... ....... ....... ....... ....... ....... ....... 362 DAG DANNY 00:05:18 11,33
197 685 VAN RAND FRAAT MARTINE 00:53:02 ....... ....... ....... ....... ....... ....... ....... 13 ....... ....... 359 00:05:18 11,31
198 19 BERTONI JENNY 00:53:06 ....... ....... ....... ....... ....... ....... ....... ....... 2 ....... 355 00:05:19 11,30
199 52 PAROTTE SIMONE 00:53:14 ....... ....... ....... ....... ....... ....... ....... ....... ....... 1 352 00:05:19 11,27
200 209 ROBERTI HENRI 00:53:15 ....... ....... ....... ....... 16 ....... ....... ....... ....... ....... 349 AMC 00:05:20 11,27
201 24 TRATSAERT GREGORY 00:53:34 ....... 62 ....... ....... ....... ....... ....... ....... ....... ....... 345 00:05:21 11,20
202 619 PROFITA PIERRE 00:53:40 ....... 63 ....... ....... ....... ....... ....... ....... ....... ....... 342 MF TORINO 00:05:22 11,18
203 198 ULRICI ROLAND 00:53:45 ....... ....... ....... 32 ....... ....... ....... ....... ....... ....... 339 00:05:22 11,16
204 176 GARBACZ ANDRE 00:53:48 ....... ....... 64 ....... ....... ....... ....... ....... ....... ....... 336 DECATHLON 00:05:23 11,15
205 26 SAGGIORATO LUIGI 00:53:53 ....... ....... ....... ....... 17 ....... ....... ....... ....... ....... 332 SERUNNER 00:05:23 11,14
206 518 BONHEMME LAURENCE 00:54:05 ....... ....... ....... ....... ....... ....... ....... 14 ....... ....... 329 00:05:25 11,09
207 218 HILDERSON LUC 00:54:09 ....... ....... ....... ....... 18 ....... ....... ....... ....... ....... 326 00:05:25 11,08
208 512 REMACLE PIERRE AMAURY 00:54:40 ....... 64 ....... ....... ....... ....... ....... ....... ....... ....... 322 00:05:28 10,98
209 25 SOLER TONY 00:54:42 ....... ....... 65 ....... ....... ....... ....... ....... ....... ....... 319 RUNNING SOUMAGNE 00:05:28 10,97
210 67 CARRERA NICOLE 00:54:48 ....... ....... ....... ....... ....... ....... 6 ....... ....... ....... 316 SER ATHL 00:05:29 10,95
211 664 BAIVIER JEAN 00:54:51 ....... ....... ....... 33 ....... ....... ....... ....... ....... ....... 313 00:05:29 10,94
212 700 JOISTEN QUENTIN 00:55:12 ....... 65 ....... ....... ....... ....... ....... ....... ....... ....... 309 00:05:31 10,87
213 540 CURRERI VIRGINIE 00:55:15 ....... ....... ....... ....... ....... ....... 7 ....... ....... ....... 306 HST 00:05:31 10,86
214 605 SUEVO EMILIO 00:55:16 ....... ....... 66 ....... ....... ....... ....... ....... ....... ....... 303 00:05:32 10,86
215 237 SPELGATTI RAFAEL 00:55:23 ....... ....... 67 ....... ....... ....... ....... ....... ....... ....... 299 00:05:32 10,83
216 672 RADEMAKER MARTINE 00:55:31 ....... ....... ....... ....... ....... ....... ....... 15 ....... ....... 296 OUPEYE ATHLETISME 00:05:33 10,81
217 514 SCHEFFERT LAURENT 00:55:33 ....... 66 ....... ....... ....... ....... ....... ....... ....... ....... 293 00:05:33 10,80
218 75 DANIELS TOM 00:55:33 6 ....... ....... ....... ....... ....... ....... ....... ....... ....... 289 00:05:33 10,80
219 515 COLPIN BENJAMIN 00:55:35 7 ....... ....... ....... ....... ....... ....... ....... ....... ....... 286 00:05:33 10,79
220 652 IOVINE DANIELAL 00:55:38 ....... ....... ....... ....... ....... ....... 8 ....... ....... ....... 283 00:05:34 10,78
221 80 HADJIDIMITRIOU STELIO 00:55:38 ....... ....... ....... 34 ....... ....... ....... ....... ....... ....... 280 JCH 00:05:34 10,78
222 580 MURONI LORENZO 00:55:45 ....... 67 ....... ....... ....... ....... ....... ....... ....... ....... 276 00:05:35 10,76
223 631 PIRLET AMELIE 00:55:59 ....... ....... ....... ....... ....... ....... 9 ....... ....... ....... 273 JOG ATTITUDE 00:05:36 10,72
224 102 BELLEFLAMME PASCALE 00:56:00 ....... ....... ....... ....... ....... ....... ....... 16 ....... ....... 270 LA CAVE QUI COURT 00:05:36 10,71
225 517 FLEMAL PIERRE 00:56:01 ....... ....... ....... 35 ....... ....... ....... ....... ....... ....... 266 JOGGING JUPRELLE 00:05:36 10,71
226 666 BEN AFRA YASMINE 00:56:05 ....... ....... 68 ....... ....... ....... ....... ....... ....... ....... 263 00:05:36 10,70
227 698 NOEL LISE 00:56:07 ....... ....... ....... ....... ....... ....... 10 ....... ....... ....... 260 00:05:37 10,69
228 327 MARTIN DIDIER 00:56:14 ....... ....... ....... 36 ....... ....... ....... ....... ....... ....... 257 00:05:37 10,67
229 279 KALIN THIERRY 00:56:35 ....... ....... 69 ....... ....... ....... ....... ....... ....... ....... 253 00:05:39 10,60
230 597 REYNDERS PATRICK 00:56:37 ....... ....... ....... 37 ....... ....... ....... ....... ....... ....... 250 00:05:40 10,60
231 521 BRUGGEN LISETTE 00:56:40 ....... ....... ....... ....... ....... ....... ....... ....... 3 ....... 247 HACCOURT SANTE 00:05:40 10,59
232 600 WERELDS GUY 00:56:51 ....... ....... ....... 38 ....... ....... ....... ....... ....... ....... 243 00:05:41 10,55
233 526 STIENNON MICHELLE 00:56:51 ....... ....... ....... ....... ....... ....... ....... ....... ....... 2 240 HACCOURT SANTE 00:05:41 10,55
234 676 WILLEMS YVES 00:56:57 ....... ....... 70 ....... ....... ....... ....... ....... ....... ....... 237 00:05:42 10,54
235 11 VAN LAAR CHRISTINE 00:57:02 ....... ....... ....... ....... ....... ....... ....... 17 ....... ....... 234 L AVENIR 00:05:42 10,52
236 617 BONHOMME FRANCOISE 00:57:10 ....... ....... ....... ....... ....... ....... ....... 18 ....... ....... 230 JCPMF VISE 00:05:43 10,50
237 575 HAINAUX NATHALIE 00:57:16 ....... ....... ....... ....... ....... ....... ....... 19 ....... ....... 227 TCBM 00:05:44 10,48
238 100 MELARD MICHEL 00:57:29 ....... ....... ....... ....... 19 ....... ....... ....... ....... ....... 224 00:05:45 10,44
239 84 VERLINDE MARIE-PAULE 00:57:35 ....... ....... ....... ....... ....... ....... ....... ....... 4 ....... 220 00:05:46 10,42
240 695 COLSON MICHELE 00:57:38 ....... ....... ....... ....... ....... ....... ....... 20 ....... ....... 217 00:05:46 10,41
241 543 ADAM FRANCK 00:57:38 ....... ....... 71 ....... ....... ....... ....... ....... ....... ....... 214 HST 00:05:46 10,41
242 187 DELHEZ MARCEL 00:57:41 ....... ....... ....... ....... 20 ....... ....... ....... ....... ....... 211 SERAING 00:05:46 10,40
243 524 WATERVAL PIERRE 00:57:45 ....... ....... ....... 39 ....... ....... ....... ....... ....... ....... 207 JCPLF VISE 00:05:47 10,39
244 594 GENOT OLIVIER 00:57:46 ....... ....... 72 ....... ....... ....... ....... ....... ....... ....... 204 SOUMAGNE 00:05:47 10,39
245 689 VAIRIAT JACQUES 00:57:52 ....... ....... ....... ....... 21 ....... ....... ....... ....... ....... 201 START TURUN 00:05:47 10,37
246 43 PERPETE ANNE-MARIE 00:58:37 ....... ....... ....... ....... ....... ....... ....... ....... ....... 3 197 RFCL 00:05:52 10,24
247 199 ULRICI JACKY 00:59:00 ....... ....... ....... 40 ....... ....... ....... ....... ....... ....... 194 00:05:54 10,17
248 706 LEBAS CELINE 00:59:02 ....... ....... ....... ....... ....... ....... 11 ....... ....... ....... 191 00:05:54 10,16
249 73 PETERS FABRICE 00:59:08 ....... ....... 73 ....... ....... ....... ....... ....... ....... ....... 188 00:05:55 10,15
250 661 LEESTMANS CHARLES 00:59:17 ....... 68 ....... ....... ....... ....... ....... ....... ....... ....... 184 00:05:56 10,12
251 343 WILKIN J MARC 00:59:18 ....... ....... 74 ....... ....... ....... ....... ....... ....... ....... 181 00:05:56 10,12
252 90 BODEUS ALAIN 01:00:09 ....... ....... ....... 41 ....... ....... ....... ....... ....... ....... 178 JOG IN ATTITUDE 00:06:01 9,98
253 563 RASIER JEAN MARIE 01:00:10 ....... ....... ....... ....... 22 ....... ....... ....... ....... ....... 174 00:06:01 9,97
254 703 LEVAUX KEVIN 01:00:15 ....... 69 ....... ....... ....... ....... ....... ....... ....... ....... 171 00:06:01 9,96
255 634 ANNAERT FRANCOIS 01:00:15 ....... 70 ....... ....... ....... ....... ....... ....... ....... ....... 168 00:06:01 9,96
256 586 JAMBERS NICOLAS 01:00:32 ....... ....... 75 ....... ....... ....... ....... ....... ....... ....... 164 00:06:03 9,91
257 699 D ADDAZIO JORDAN 01:00:34 ....... 71 ....... ....... ....... ....... ....... ....... ....... ....... 161 00:06:03 9,91
258 599 MELLET LAURA 01:00:37 ....... ....... ....... ....... ....... ....... 12 ....... ....... ....... 158 00:06:04 9,90
259 581 LECLERQ SANDRINE 01:00:37 ....... ....... ....... ....... ....... ....... 13 ....... ....... ....... 155 00:06:04 9,90
260 710 MICHOTTE CAROLINE 01:00:48 ....... ....... ....... ....... ....... ....... 14 ....... ....... ....... 151 00:06:05 9,87
261 30 PELLAERS SFERRUGIA CORINNE 01:01:05 ....... ....... ....... ....... ....... ....... ....... 21 ....... ....... 148 JOG IN ATTITUDE 00:06:07 9,82
262 573 JURKIEWIECZ YVES 01:01:06 ....... 72 ....... ....... ....... ....... ....... ....... ....... ....... 145 JOG IN ATTITUDE 00:06:07 9,82
263 655 MAMMOLI MARIELLA 01:01:37 ....... ....... ....... ....... ....... ....... ....... ....... 5 ....... 141 00:06:10 9,74
264 616 RUTILO MICHAEL 01:01:40 ....... 73 ....... ....... ....... ....... ....... ....... ....... ....... 138 00:06:10 9,73
265 687 BROUERS VERONIQUE 01:01:46 ....... ....... ....... ....... ....... ....... ....... ....... 6 ....... 135 00:06:11 9,71
266 254 ORBAN MICHELE 01:01:48 ....... ....... ....... ....... ....... ....... ....... 22 ....... ....... 132 00:06:11 9,71
267 684 COLLINET VALERIE 01:01:53 ....... ....... ....... ....... ....... ....... ....... 23 ....... ....... 128 00:06:11 9,70
268 669 WILMET THIERRY 01:01:54 ....... ....... 76 ....... ....... ....... ....... ....... ....... ....... 125 00:06:11 9,69
269 232 VANHERCK JEAN 01:02:00 ....... ....... ....... ....... 23 ....... ....... ....... ....... ....... 122 00:06:12 9,68
270 604 RENWART SABRINA 01:02:18 ....... ....... ....... ....... ....... ....... 15 ....... ....... ....... 118 00:06:14 9,63
271 665 WOUTERS GHISLAIN 01:02:55 ....... ....... ....... ....... 24 ....... ....... ....... ....... ....... 115 00:06:17 9,54
272 659 PERRUSEL NATHALIE 01:02:57 ....... ....... ....... ....... ....... ....... ....... 24 ....... ....... 112 00:06:18 9,53
273 533 MASSART GERALDINE 01:03:07 ....... ....... ....... ....... ....... ....... 16 ....... ....... ....... 109 00:06:19 9,51
274 339 PERFETTO ELISA 01:03:12 ....... ....... ....... ....... ....... ....... ....... ....... ....... 4 105 00:06:19 9,49
275 520 PANARIELLO FABIAN 01:03:12 ....... 74 ....... ....... ....... ....... ....... ....... ....... ....... 102 00:06:19 9,49
276 675 MAKA MAVRIC 01:03:27 8 ....... ....... ....... ....... ....... ....... ....... ....... ....... 99 00:06:21 9,46
277 674 MANCINONE ANTHONY 01:03:27 ....... 75 ....... ....... ....... ....... ....... ....... ....... ....... 95 00:06:21 9,46
278 654 RUTILO ROSETTA 01:03:34 ....... ....... ....... ....... ....... ....... ....... ....... 7 ....... 92 00:06:21 9,44
279 212 JASPERS JOZEF 01:04:10 ....... ....... ....... ....... 25 ....... ....... ....... ....... ....... 89 00:06:25 9,35
280 523 FRYNS GILBERT 01:04:12 ....... ....... ....... ....... 26 ....... ....... ....... ....... ....... 86 L AVENIR 00:06:25 9,35
281 127 DEPREITERE KOST 01:04:25 ....... ....... ....... ....... ....... ....... ....... ....... ....... 5 82 00:06:26 9,31
282 235 ARGENTO CALOGERA 01:04:39 ....... 76 ....... ....... ....... ....... ....... ....... ....... ....... 79 00:06:28 9,28
283 89 LEMAIRE NATHALIE 01:04:47 ....... ....... ....... ....... ....... ....... ....... 25 ....... ....... 76 00:06:29 9,26
284 193 LANGE PHILIPPE 01:04:49 ....... ....... 77 ....... ....... ....... ....... ....... ....... ....... 72 00:06:29 9,26
285 559 MECZKOWSKI STAN 01:05:43 ....... ....... ....... ....... 27 ....... ....... ....... ....... ....... 69 00:06:34 9,13
286 48 CALIFICE HUBERTE 01:05:47 ....... ....... ....... ....... ....... ....... ....... ....... ....... 6 66 00:06:35 9,12
287 566 VERBIST GEORGETTE 01:05:55 ....... ....... ....... ....... ....... ....... ....... ....... ....... 7 63 00:06:36 9,10
288 704 CORTESSE GENEVIEVE 01:07:19 ....... ....... ....... ....... ....... ....... ....... 26 ....... ....... 59 HST 00:06:44 8,91
289 639 LOUVRIER JEAN FRANCOIS 01:07:51 ....... ....... 78 ....... ....... ....... ....... ....... ....... ....... 56 HST 00:06:47 8,84
290 577 GERON CHRISTINE 01:07:57 ....... 77 ....... ....... ....... ....... ....... ....... ....... ....... 53 00:06:48 8,83
291 578 WEGNEZ GERALDINE 01:07:57 ....... ....... ....... ....... ....... ....... 17 ....... ....... ....... 49 00:06:48 8,83
292 658 RAMELOT AMANDINE 01:08:17 ....... ....... ....... ....... ....... ....... 18 ....... ....... ....... 46 00:06:50 8,79
293 657 AVIGNON MERCEDES 01:08:19 ....... ....... ....... ....... ....... ....... 19 ....... ....... ....... 43 00:06:50 8,78
294 679 MINGUET MICKAEL 01:08:28 ....... 78 ....... ....... ....... ....... ....... ....... ....... ....... 39 00:06:51 8,76
295 104 BABE MICHEL 01:08:37 ....... ....... ....... 42 ....... ....... ....... ....... ....... ....... 36 00:06:52 8,74
296 632 MATTHYS JONATHAN 01:08:44 ....... 79 ....... ....... ....... ....... ....... ....... ....... ....... 33 00:06:52 8,73
297 708 MONJOIE SANDRINE 01:08:47 ....... ....... ....... ....... ....... ....... 20 ....... ....... ....... 30 00:06:53 8,72
298 671 MONJOIE SEVERINE 01:08:48 ....... ....... ....... ....... ....... ....... 21 ....... ....... ....... 26 00:06:53 8,72
299 688 MATHIEU CHRISTOPHE 01:08:50 ....... 80 ....... ....... ....... ....... ....... ....... ....... ....... 23 00:06:53 8,72
300 204 VAN LAAR MARILYNE 01:10:22 ....... ....... ....... ....... ....... ....... 22 ....... ....... ....... 20 00:07:02 8,53
301 640 RAMIER SYLVIE 01:13:31 ....... ....... ....... ....... ....... ....... ....... 27 ....... ....... 16 HST 00:07:21 8,16
302 697 BEUSINNE JOSIANE 01:14:04 ....... ....... ....... ....... ....... ....... ....... ....... 8 ....... 13 OUPEYE ATHL 00:07:24 8,10
303 633 SCHEPERS MIRIAM 01:14:04 ....... ....... ....... ....... ....... ....... ....... ....... 9 ....... 10 HACCOURT SANTE 00:07:24 8,10
304 625 BRONE LAETITIA 01:21:06 ....... ....... ....... ....... ....... ....... 23 ....... ....... ....... 7 00:08:07 7,40
305 333 DURWAEL J CLAUDE 01:21:07 ....... ....... ....... ....... 28 ....... ....... ....... ....... ....... 3 PW 00:08:07 7,40